sensor_id;sensor_type;location;lat;lon;timestamp;temperature;humidity
2050;DHT22;8478;49.208;8.806;2022-12-18T00:01:44;5.40;99.90
2050;DHT22;8478;49.208;8.806;2022-12-18T00:04:20;5.40;99.90
2050;DHT22;8478;49.208;8.806;2022-12-18T00:06:46;5.40;99.90
2050;DHT22;8478;49.208;8.806;2022-12-18T00:09:12;5.40;99.90
2050;DHT22;8478;49.208;8.806;2022-12-18T00:11:37;5.40;99.90
2050;DHT22;8478;49.208;8.806;2022-12-18T00:14:03;5.40;99.90
2050;DHT22;8478;49.208;8.806;2022-12-18T00:16:29;5.40;99.90
2050;DHT22;8478;49.208;8.806;2022-12-18T00:18:57;5.40;99.90
2050;DHT22;8478;49.208;8.806;2022-12-18T00:21:22;5.40;99.90
2050;DHT22;8478;49.208;8.806;2022-12-18T00:23:49;5.40;99.90
2050;DHT22;8478;49.208;8.806;2022-12-18T00:26:36;5.40;99.90
2050;DHT22;8478;49.208;8.806;2022-12-18T00:29:12;5.30;99.90
2050;DHT22;8478;49.208;8.806;2022-12-18T00:31:42;5.40;99.90
2050;DHT22;8478;49.208;8.806;2022-12-18T00:34:11;5.40;99.90
2050;DHT22;8478;49.208;8.806;2022-12-18T00:36:38;5.50;99.90
2050;DHT22;8478;49.208;8.806;2022-12-18T00:39:05;5.40;99.90
2050;DHT22;8478;49.208;8.806;2022-12-18T00:41:31;5.40;99.90
2050;DHT22;8478;49.208;8.806;2022-12-18T00:44:17;5.30;99.90
2050;DHT22;8478;49.208;8.806;2022-12-18T00:46:44;5.40;99.90
2050;DHT22;8478;49.208;8.806;2022-12-18T00:49:10;5.30;99.90
2050;DHT22;8478;49.208;8.806;2022-12-18T00:51:36;5.40;99.90
2050;DHT22;8478;49.208;8.806;2022-12-18T00:54:01;5.30;99.90
2050;DHT22;8478;49.208;8.806;2022-12-18T00:56:27;5.30;99.90
2050;DHT22;8478;49.208;8.806;2022-12-18T00:58:53;5.40;99.90
2050;DHT22;8478;49.208;8.806;2022-12-18T01:01:19;5.30;99.90
2050;DHT22;8478;49.208;8.806;2022-12-18T01:03:45;5.30;99.90
2050;DHT22;8478;49.208;8.806;2022-12-18T01:06:13;5.40;99.90
2050;DHT22;8478;49.208;8.806;2022-12-18T01:08:39;5.40;99.90
2050;DHT22;8478;49.208;8.806;2022-12-18T01:11:10;5.30;99.90
2050;DHT22;8478;49.208;8.806;2022-12-18T01:13:37;5.30;99.90
2050;DHT22;8478;49.208;8.806;2022-12-18T01:16:03;5.30;99.90
2050;DHT22;8478;49.208;8.806;2022-12-18T01:18:28;5.30;99.90
2050;DHT22;8478;49.208;8.806;2022-12-18T01:20:54;5.40;99.90
2050;DHT22;8478;49.208;8.806;2022-12-18T01:23:20;5.30;99.90
2050;DHT22;8478;49.208;8.806;2022-12-18T01:25:45;5.30;99.90
2050;DHT22;8478;49.208;8.806;2022-12-18T01:28:11;5.30;99.90
2050;DHT22;8478;49.208;8.806;2022-12-18T01:30:37;5.30;99.90
2050;DHT22;8478;49.208;8.806;2022-12-18T01:33:04;5.40;99.90
2050;DHT22;8478;49.208;8.806;2022-12-18T01:35:30;5.40;99.90
2050;DHT22;8478;49.208;8.806;2022-12-18T01:37:56;5.30;99.90
2050;DHT22;8478;49.208;8.806;2022-12-18T01:40:22;5.30;99.90
2050;DHT22;8478;49.208;8.806;2022-12-18T01:42:54;5.20;99.90
2050;DHT22;8478;49.208;8.806;2022-12-18T01:45:27;5.30;99.90
2050;DHT22;8478;49.208;8.806;2022-12-18T01:47:58;5.30;99.90
2050;DHT22;8478;49.208;8.806;2022-12-18T01:52:56;5.30;99.90
2050;DHT22;8478;49.208;8.806;2022-12-18T01:55:25;5.30;99.90
2050;DHT22;8478;49.208;8.806;2022-12-18T01:57:56;5.30;99.90
2050;DHT22;8478;49.208;8.806;2022-12-18T02:00:24;5.30;99.90
2050;DHT22;8478;49.208;8.806;2022-12-18T02:02:50;5.30;99.90
2050;DHT22;8478;49.208;8.806;2022-12-18T02:05:22;5.30;99.90
2050;DHT22;8478;49.208;8.806;2022-12-18T02:15:54;5.30;99.90
2050;DHT22;8478;49.208;8.806;2022-12-18T02:18:41;5.30;99.90
2050;DHT22;8478;49.208;8.806;2022-12-18T02:21:12;5.30;99.90
2050;DHT22;8478;49.208;8.806;2022-12-18T02:26:48;5.30;99.90
2050;DHT22;8478;49.208;8.806;2022-12-18T02:29:20;5.40;99.90
2050;DHT22;8478;49.208;8.806;2022-12-18T02:31:52;5.30;99.90
2050;DHT22;8478;49.208;8.806;2022-12-18T02:34:21;5.30;99.90
2050;DHT22;8478;49.208;8.806;2022-12-18T02:36:49;5.40;99.90
2050;DHT22;8478;49.208;8.806;2022-12-18T02:39:16;5.20;99.90
2050;DHT22;8478;49.208;8.806;2022-12-18T02:41:43;5.30;99.90
2050;DHT22;8478;49.208;8.806;2022-12-18T02:44:11;5.30;99.90
2050;DHT22;8478;49.208;8.806;2022-12-18T02:46:51;5.20;99.90
2050;DHT22;8478;49.208;8.806;2022-12-18T02:55:24;5.30;99.90
2050;DHT22;8478;49.208;8.806;2022-12-18T02:57:58;5.30;99.90
2050;DHT22;8478;49.208;8.806;2022-12-18T03:00:43;5.30;99.90
2050;DHT22;8478;49.208;8.806;2022-12-18T03:03:41;5.20;99.90
2050;DHT22;8478;49.208;8.806;2022-12-18T03:06:36;5.30;99.90
2050;DHT22;8478;49.208;8.806;2022-12-18T03:09:16;5.20;99.90
2050;DHT22;8478;49.208;8.806;2022-12-18T03:11:46;5.30;99.90
2050;DHT22;8478;49.208;8.806;2022-12-18T03:14:34;5.30;99.90
2050;DHT22;8478;49.208;8.806;2022-12-18T03:17:05;5.30;99.90
2050;DHT22;8478;49.208;8.806;2022-12-18T03:19:33;5.20;99.90
2050;DHT22;8478;49.208;8.806;2022-12-18T03:22:02;5.30;99.90
2050;DHT22;8478;49.208;8.806;2022-12-18T03:24:29;5.30;99.90
2050;DHT22;8478;49.208;8.806;2022-12-18T03:27:06;5.30;99.90
2050;DHT22;8478;49.208;8.806;2022-12-18T03:29:42;5.20;99.90
2050;DHT22;8478;49.208;8.806;2022-12-18T03:32:19;5.30;99.90
2050;DHT22;8478;49.208;8.806;2022-12-18T03:34:48;5.30;99.90
2050;DHT22;8478;49.208;8.806;2022-12-18T03:37:16;5.30;99.90
2050;DHT22;8478;49.208;8.806;2022-12-18T03:39:42;5.20;99.90
2050;DHT22;8478;49.208;8.806;2022-12-18T03:42:17;5.30;99.90
2050;DHT22;8478;49.208;8.806;2022-12-18T03:45:18;5.30;99.90
2050;DHT22;8478;49.208;8.806;2022-12-18T03:50:45;5.30;99.90
2050;DHT22;8478;49.208;8.806;2022-12-18T03:56:06;5.40;99.90
2050;DHT22;8478;49.208;8.806;2022-12-18T03:58:35;5.30;99.90
2050;DHT22;8478;49.208;8.806;2022-12-18T04:01:08;5.30;99.90
2050;DHT22;8478;49.208;8.806;2022-12-18T04:03:36;5.30;99.90
2050;DHT22;8478;49.208;8.806;2022-12-18T04:06:03;5.20;99.90
2050;DHT22;8478;49.208;8.806;2022-12-18T04:08:30;5.30;99.90
2050;DHT22;8478;49.208;8.806;2022-12-18T04:10:56;5.30;99.90
2050;DHT22;8478;49.208;8.806;2022-12-18T04:13:23;5.30;99.90
2050;DHT22;8478;49.208;8.806;2022-12-18T04:15:49;5.20;99.90
2050;DHT22;8478;49.208;8.806;2022-12-18T04:18:14;5.30;99.90
2050;DHT22;8478;49.208;8.806;2022-12-18T04:20:40;5.30;99.90
2050;DHT22;8478;49.208;8.806;2022-12-18T04:23:06;5.20;99.90
2050;DHT22;8478;49.208;8.806;2022-12-18T04:25:31;5.20;99.90
2050;DHT22;8478;49.208;8.806;2022-12-18T04:27:57;5.30;99.90
2050;DHT22;8478;49.208;8.806;2022-12-18T04:30:23;5.20;99.90
2050;DHT22;8478;49.208;8.806;2022-12-18T04:32:48;5.20;99.90
2050;DHT22;8478;49.208;8.806;2022-12-18T04:35:14;5.20;99.90
2050;DHT22;8478;49.208;8.806;2022-12-18T04:37:39;5.30;99.90
2050;DHT22;8478;49.208;8.806;2022-12-18T04:40:05;5.20;99.90
2050;DHT22;8478;49.208;8.806;2022-12-18T04:42:31;5.20;99.90
2050;DHT22;8478;49.208;8.806;2022-12-18T04:44:57;5.20;99.90
2050;DHT22;8478;49.208;8.806;2022-12-18T04:47:23;5.20;99.90
2050;DHT22;8478;49.208;8.806;2022-12-18T04:49:48;5.20;99.90
2050;DHT22;8478;49.208;8.806;2022-12-18T04:52:14;5.20;99.90
2050;DHT22;8478;49.208;8.806;2022-12-18T04:54:40;5.00;99.90
2050;DHT22;8478;49.208;8.806;2022-12-18T04:57:05;5.20;99.90
2050;DHT22;8478;49.208;8.806;2022-12-18T04:59:31;5.30;99.90
2050;DHT22;8478;49.208;8.806;2022-12-18T05:01:56;5.20;99.90
2050;DHT22;8478;49.208;8.806;2022-12-18T05:04:22;5.20;99.90
2050;DHT22;8478;49.208;8.806;2022-12-18T05:06:48;5.30;99.90
2050;DHT22;8478;49.208;8.806;2022-12-18T05:09:14;5.20;99.90
2050;DHT22;8478;49.208;8.806;2022-12-18T05:11:39;5.30;99.90
2050;DHT22;8478;49.208;8.806;2022-12-18T05:14:05;5.20;99.90
2050;DHT22;8478;49.208;8.806;2022-12-18T05:16:30;5.20;99.90
2050;DHT22;8478;49.208;8.806;2022-12-18T05:18:56;5.20;99.90
2050;DHT22;8478;49.208;8.806;2022-12-18T05:21:22;5.20;99.90
2050;DHT22;8478;49.208;8.806;2022-12-18T05:23:48;5.20;99.90
2050;DHT22;8478;49.208;8.806;2022-12-18T05:26:18;5.20;99.90
2050;DHT22;8478;49.208;8.806;2022-12-18T05:28:44;5.20;99.90
2050;DHT22;8478;49.208;8.806;2022-12-18T05:31:10;5.20;99.90
2050;DHT22;8478;49.208;8.806;2022-12-18T05:33:36;5.20;99.90
2050;DHT22;8478;49.208;8.806;2022-12-18T05:36:06;5.20;99.90
2050;DHT22;8478;49.208;8.806;2022-12-18T05:38:34;5.20;99.90
2050;DHT22;8478;49.208;8.806;2022-12-18T05:41:00;5.20;99.90
2050;DHT22;8478;49.208;8.806;2022-12-18T05:43:27;5.20;99.90
2050;DHT22;8478;49.208;8.806;2022-12-18T05:45:53;5.20;99.90
2050;DHT22;8478;49.208;8.806;2022-12-18T05:48:20;5.20;99.90
2050;DHT22;8478;49.208;8.806;2022-12-18T05:50:47;5.20;99.90
2050;DHT22;8478;49.208;8.806;2022-12-18T05:53:17;5.20;99.90
2050;DHT22;8478;49.208;8.806;2022-12-18T05:55:43;5.20;99.90
2050;DHT22;8478;49.208;8.806;2022-12-18T05:58:10;5.20;99.90
2050;DHT22;8478;49.208;8.806;2022-12-18T06:00:38;5.20;99.90
2050;DHT22;8478;49.208;8.806;2022-12-18T06:03:08;5.20;99.90
2050;DHT22;8478;49.208;8.806;2022-12-18T06:05:39;5.20;99.90
2050;DHT22;8478;49.208;8.806;2022-12-18T06:08:06;5.20;99.90
2050;DHT22;8478;49.208;8.806;2022-12-18T06:10:32;5.20;99.90
2050;DHT22;8478;49.208;8.806;2022-12-18T06:12:58;5.20;99.90
2050;DHT22;8478;49.208;8.806;2022-12-18T06:15:23;5.20;99.90
2050;DHT22;8478;49.208;8.806;2022-12-18T06:17:50;5.20;99.90
2050;DHT22;8478;49.208;8.806;2022-12-18T06:20:15;5.20;99.90
2050;DHT22;8478;49.208;8.806;2022-12-18T06:22:41;5.30;99.90
2050;DHT22;8478;49.208;8.806;2022-12-18T06:25:07;5.10;99.90
2050;DHT22;8478;49.208;8.806;2022-12-18T06:27:33;5.20;99.90
2050;DHT22;8478;49.208;8.806;2022-12-18T06:30:00;5.10;99.90
2050;DHT22;8478;49.208;8.806;2022-12-18T06:32:26;5.10;99.90
2050;DHT22;8478;49.208;8.806;2022-12-18T06:34:52;5.10;99.90
2050;DHT22;8478;49.208;8.806;2022-12-18T06:37:19;5.10;99.90
2050;DHT22;8478;49.208;8.806;2022-12-18T06:39:44;5.20;99.90
2050;DHT22;8478;49.208;8.806;2022-12-18T06:42:10;5.20;99.90
2050;DHT22;8478;49.208;8.806;2022-12-18T06:44:36;5.10;99.90
2050;DHT22;8478;49.208;8.806;2022-12-18T06:47:01;5.10;99.90
2050;DHT22;8478;49.208;8.806;2022-12-18T06:49:27;5.10;99.90
2050;DHT22;8478;49.208;8.806;2022-12-18T06:51:53;5.10;99.90
2050;DHT22;8478;49.208;8.806;2022-12-18T06:54:18;5.10;99.90
2050;DHT22;8478;49.208;8.806;2022-12-18T06:56:47;5.20;99.90
2050;DHT22;8478;49.208;8.806;2022-12-18T06:59:13;5.10;99.90
2050;DHT22;8478;49.208;8.806;2022-12-18T07:01:40;5.10;99.90
2050;DHT22;8478;49.208;8.806;2022-12-18T07:04:05;5.10;99.90
2050;DHT22;8478;49.208;8.806;2022-12-18T07:06:31;5.20;99.90
2050;DHT22;8478;49.208;8.806;2022-12-18T07:08:57;5.10;99.90
2050;DHT22;8478;49.208;8.806;2022-12-18T07:11:23;5.10;99.90
2050;DHT22;8478;49.208;8.806;2022-12-18T07:13:49;5.20;99.90
2050;DHT22;8478;49.208;8.806;2022-12-18T07:16:17;5.10;99.90
2050;DHT22;8478;49.208;8.806;2022-12-18T07:18:43;5.10;99.90
2050;DHT22;8478;49.208;8.806;2022-12-18T07:21:12;5.10;99.90
2050;DHT22;8478;49.208;8.806;2022-12-18T07:23:38;5.00;99.90
2050;DHT22;8478;49.208;8.806;2022-12-18T07:26:08;5.10;99.90
2050;DHT22;8478;49.208;8.806;2022-12-18T07:28:35;5.10;99.90
2050;DHT22;8478;49.208;8.806;2022-12-18T07:31:11;5.10;99.90
2050;DHT22;8478;49.208;8.806;2022-12-18T07:33:37;5.00;99.90
2050;DHT22;8478;49.208;8.806;2022-12-18T07:36:05;5.10;99.90
2050;DHT22;8478;49.208;8.806;2022-12-18T07:38:32;5.10;99.90
2050;DHT22;8478;49.208;8.806;2022-12-18T07:41:02;5.10;99.90
2050;DHT22;8478;49.208;8.806;2022-12-18T07:43:28;5.00;99.90
2050;DHT22;8478;49.208;8.806;2022-12-18T07:45:54;5.00;99.90
2050;DHT22;8478;49.208;8.806;2022-12-18T07:48:20;5.10;99.90
2050;DHT22;8478;49.208;8.806;2022-12-18T07:50:45;5.10;99.90
2050;DHT22;8478;49.208;8.806;2022-12-18T07:53:11;5.10;99.90
2050;DHT22;8478;49.208;8.806;2022-12-18T07:55:37;5.10;99.90
2050;DHT22;8478;49.208;8.806;2022-12-18T07:58:03;5.10;99.90
2050;DHT22;8478;49.208;8.806;2022-12-18T08:00:30;5.00;99.90
2050;DHT22;8478;49.208;8.806;2022-12-18T08:02:56;4.90;99.90
2050;DHT22;8478;49.208;8.806;2022-12-18T08:05:22;5.10;99.90
2050;DHT22;8478;49.208;8.806;2022-12-18T08:07:48;5.10;99.90
2050;DHT22;8478;49.208;8.806;2022-12-18T08:10:14;5.10;99.90
2050;DHT22;8478;49.208;8.806;2022-12-18T08:12:39;5.10;99.90
2050;DHT22;8478;49.208;8.806;2022-12-18T08:15:06;5.00;99.90
2050;DHT22;8478;49.208;8.806;2022-12-18T08:17:31;5.00;99.90
2050;DHT22;8478;49.208;8.806;2022-12-18T08:19:57;5.10;99.90
2050;DHT22;8478;49.208;8.806;2022-12-18T08:22:23;5.00;99.90
2050;DHT22;8478;49.208;8.806;2022-12-18T08:24:48;5.10;99.90
2050;DHT22;8478;49.208;8.806;2022-12-18T08:27:14;5.10;99.90
2050;DHT22;8478;49.208;8.806;2022-12-18T08:29:40;5.00;99.90
2050;DHT22;8478;49.208;8.806;2022-12-18T08:32:05;5.10;99.90
2050;DHT22;8478;49.208;8.806;2022-12-18T08:34:31;5.00;99.90
2050;DHT22;8478;49.208;8.806;2022-12-18T08:36:57;5.00;99.90
2050;DHT22;8478;49.208;8.806;2022-12-18T08:39:22;5.00;99.90
2050;DHT22;8478;49.208;8.806;2022-12-18T08:41:48;5.10;99.90
2050;DHT22;8478;49.208;8.806;2022-12-18T08:44:34;5.10;99.90
2050;DHT22;8478;49.208;8.806;2022-12-18T08:47:04;5.00;99.90
2050;DHT22;8478;49.208;8.806;2022-12-18T08:49:29;5.00;99.90
2050;DHT22;8478;49.208;8.806;2022-12-18T08:51:56;5.10;99.90
2050;DHT22;8478;49.208;8.806;2022-12-18T08:54:25;5.00;99.90
2050;DHT22;8478;49.208;8.806;2022-12-18T08:56:51;5.00;99.90
2050;DHT22;8478;49.208;8.806;2022-12-18T08:59:18;5.00;99.90
2050;DHT22;8478;49.208;8.806;2022-12-18T09:01:44;5.00;99.90
2050;DHT22;8478;49.208;8.806;2022-12-18T09:04:10;5.00;99.90
2050;DHT22;8478;49.208;8.806;2022-12-18T09:06:36;5.00;99.90
2050;DHT22;8478;49.208;8.806;2022-12-18T09:09:03;5.10;99.90
2050;DHT22;8478;49.208;8.806;2022-12-18T09:11:29;4.90;99.90
2050;DHT22;8478;49.208;8.806;2022-12-18T09:13:56;5.00;99.90
2050;DHT22;8478;49.208;8.806;2022-12-18T09:16:23;5.10;99.90
2050;DHT22;8478;49.208;8.806;2022-12-18T09:18:49;5.00;99.90
2050;DHT22;8478;49.208;8.806;2022-12-18T09:21:20;5.00;99.90
2050;DHT22;8478;49.208;8.806;2022-12-18T09:23:50;5.10;99.90
2050;DHT22;8478;49.208;8.806;2022-12-18T09:26:16;4.80;99.90
2050;DHT22;8478;49.208;8.806;2022-12-18T09:28:42;5.20;99.90
2050;DHT22;8478;49.208;8.806;2022-12-18T09:31:10;4.80;99.90
2050;DHT22;8478;49.208;8.806;2022-12-18T09:33:37;4.80;99.90
2050;DHT22;8478;49.208;8.806;2022-12-18T09:36:04;4.80;99.90
2050;DHT22;8478;49.208;8.806;2022-12-18T09:38:31;4.90;99.90
2050;DHT22;8478;49.208;8.806;2022-12-18T09:41:05;5.00;99.90
2050;DHT22;8478;49.208;8.806;2022-12-18T09:43:41;5.00;99.90
2050;DHT22;8478;49.208;8.806;2022-12-18T09:46:11;5.00;99.90
2050;DHT22;8478;49.208;8.806;2022-12-18T09:48:44;5.00;99.90
2050;DHT22;8478;49.208;8.806;2022-12-18T09:51:24;5.00;99.90
2050;DHT22;8478;49.208;8.806;2022-12-18T09:54:07;5.00;99.90
2050;DHT22;8478;49.208;8.806;2022-12-18T09:56:40;5.00;99.90
2050;DHT22;8478;49.208;8.806;2022-12-18T09:59:24;5.10;99.90
2050;DHT22;8478;49.208;8.806;2022-12-18T10:01:50;5.20;99.90
2050;DHT22;8478;49.208;8.806;2022-12-18T10:04:16;5.20;99.90
2050;DHT22;8478;49.208;8.806;2022-12-18T10:06:53;5.10;99.90
2050;DHT22;8478;49.208;8.806;2022-12-18T10:09:55;5.10;99.90
2050;DHT22;8478;49.208;8.806;2022-12-18T10:12:25;5.10;99.90
2050;DHT22;8478;49.208;8.806;2022-12-18T10:20:38;5.20;99.90
2050;DHT22;8478;49.208;8.806;2022-12-18T10:23:33;5.20;99.90
2050;DHT22;8478;49.208;8.806;2022-12-18T10:26:08;5.30;99.90
2050;DHT22;8478;49.208;8.806;2022-12-18T10:28:36;5.20;99.90
2050;DHT22;8478;49.208;8.806;2022-12-18T10:31:15;5.10;99.90
2050;DHT22;8478;49.208;8.806;2022-12-18T10:33:42;5.20;99.90
2050;DHT22;8478;49.208;8.806;2022-12-18T10:36:08;5.20;99.90
2050;DHT22;8478;49.208;8.806;2022-12-18T10:38:34;5.30;99.90
2050;DHT22;8478;49.208;8.806;2022-12-18T10:44:12;5.20;99.90
2050;DHT22;8478;49.208;8.806;2022-12-18T10:46:38;5.20;99.90
2050;DHT22;8478;49.208;8.806;2022-12-18T10:49:04;5.20;99.90
2050;DHT22;8478;49.208;8.806;2022-12-18T10:51:35;5.30;99.90
2050;DHT22;8478;49.208;8.806;2022-12-18T10:54:17;5.20;99.90
2050;DHT22;8478;49.208;8.806;2022-12-18T10:56:43;5.20;99.90
2050;DHT22;8478;49.208;8.806;2022-12-18T10:59:12;5.20;99.90
2050;DHT22;8478;49.208;8.806;2022-12-18T11:01:57;5.30;99.90
2050;DHT22;8478;49.208;8.806;2022-12-18T11:04:29;5.20;99.90
2050;DHT22;8478;49.208;8.806;2022-12-18T11:07:08;5.30;99.90
2050;DHT22;8478;49.208;8.806;2022-12-18T11:09:37;5.20;99.90
2050;DHT22;8478;49.208;8.806;2022-12-18T11:12:18;5.20;99.90
2050;DHT22;8478;49.208;8.806;2022-12-18T11:14:49;5.20;99.90
2050;DHT22;8478;49.208;8.806;2022-12-18T11:17:19;5.30;99.90
2050;DHT22;8478;49.208;8.806;2022-12-18T11:20:05;5.30;99.90
2050;DHT22;8478;49.208;8.806;2022-12-18T11:22:36;5.30;99.90
2050;DHT22;8478;49.208;8.806;2022-12-18T11:27:37;5.20;99.90
2050;DHT22;8478;49.208;8.806;2022-12-18T11:30:09;5.30;99.90
2050;DHT22;8478;49.208;8.806;2022-12-18T11:32:40;5.40;99.90
2050;DHT22;8478;49.208;8.806;2022-12-18T11:35:17;5.30;99.90
2050;DHT22;8478;49.208;8.806;2022-12-18T11:37:50;5.20;99.90
2050;DHT22;8478;49.208;8.806;2022-12-18T11:40:22;5.20;99.90
2050;DHT22;8478;49.208;8.806;2022-12-18T11:43:07;5.20;99.90
2050;DHT22;8478;49.208;8.806;2022-12-18T11:48:32;5.30;99.90
2050;DHT22;8478;49.208;8.806;2022-12-18T11:51:01;5.30;99.90
2050;DHT22;8478;49.208;8.806;2022-12-18T11:53:30;5.30;99.90
2050;DHT22;8478;49.208;8.806;2022-12-18T11:56:31;5.30;99.90
2050;DHT22;8478;49.208;8.806;2022-12-18T11:59:36;5.30;99.90
2050;DHT22;8478;49.208;8.806;2022-12-18T12:02:28;5.30;99.90
2050;DHT22;8478;49.208;8.806;2022-12-18T12:05:15;5.30;99.90
2050;DHT22;8478;49.208;8.806;2022-12-18T12:13:10;5.30;99.90
2050;DHT22;8478;49.208;8.806;2022-12-18T12:15:43;5.30;99.90
2050;DHT22;8478;49.208;8.806;2022-12-18T12:18:27;5.30;99.90
2050;DHT22;8478;49.208;8.806;2022-12-18T12:26:01;5.30;99.90
2050;DHT22;8478;49.208;8.806;2022-12-18T12:28:56;5.40;99.90
2050;DHT22;8478;49.208;8.806;2022-12-18T12:34:25;5.30;99.90
2050;DHT22;8478;49.208;8.806;2022-12-18T12:40:02;5.40;99.90
2050;DHT22;8478;49.208;8.806;2022-12-18T12:42:39;5.30;99.90
2050;DHT22;8478;49.208;8.806;2022-12-18T12:45:37;5.30;99.90
2050;DHT22;8478;49.208;8.806;2022-12-18T12:48:13;5.30;99.90
2050;DHT22;8478;49.208;8.806;2022-12-18T12:50:40;5.40;99.90
2050;DHT22;8478;49.208;8.806;2022-12-18T12:53:09;5.30;99.90
2050;DHT22;8478;49.208;8.806;2022-12-18T12:55:40;5.30;99.90
2050;DHT22;8478;49.208;8.806;2022-12-18T13:08:59;5.30;99.90
2050;DHT22;8478;49.208;8.806;2022-12-18T13:11:40;5.30;99.90
2050;DHT22;8478;49.208;8.806;2022-12-18T13:14:32;5.30;99.90
2050;DHT22;8478;49.208;8.806;2022-12-18T13:17:26;5.40;99.90
2050;DHT22;8478;49.208;8.806;2022-12-18T13:20:09;5.40;99.90
2050;DHT22;8478;49.208;8.806;2022-12-18T13:22:44;5.30;99.90
2050;DHT22;8478;49.208;8.806;2022-12-18T13:25:33;5.40;99.90
2050;DHT22;8478;49.208;8.806;2022-12-18T13:28:18;5.40;99.90
2050;DHT22;8478;49.208;8.806;2022-12-18T13:30:56;5.30;99.90
2050;DHT22;8478;49.208;8.806;2022-12-18T13:38:34;5.40;99.90
2050;DHT22;8478;49.208;8.806;2022-12-18T13:41:22;5.40;99.90
2050;DHT22;8478;49.208;8.806;2022-12-18T13:43:53;5.40;99.90
2050;DHT22;8478;49.208;8.806;2022-12-18T13:46:28;5.30;99.90
2050;DHT22;8478;49.208;8.806;2022-12-18T13:49:00;5.40;99.90
2050;DHT22;8478;49.208;8.806;2022-12-18T13:51:28;5.40;99.90
2050;DHT22;8478;49.208;8.806;2022-12-18T13:54:01;5.30;99.90
2050;DHT22;8478;49.208;8.806;2022-12-18T13:56:32;5.30;99.90
2050;DHT22;8478;49.208;8.806;2022-12-18T13:59:14;5.40;99.90
2050;DHT22;8478;49.208;8.806;2022-12-18T14:01:51;5.40;99.90
2050;DHT22;8478;49.208;8.806;2022-12-18T14:04:23;5.30;99.90
2050;DHT22;8478;49.208;8.806;2022-12-18T14:06:53;5.40;99.90
2050;DHT22;8478;49.208;8.806;2022-12-18T14:09:29;5.30;99.90
2050;DHT22;8478;49.208;8.806;2022-12-18T14:11:56;5.40;99.90
2050;DHT22;8478;49.208;8.806;2022-12-18T14:14:46;5.40;99.90
2050;DHT22;8478;49.208;8.806;2022-12-18T14:17:13;5.40;99.90
2050;DHT22;8478;49.208;8.806;2022-12-18T14:19:48;5.40;99.90
2050;DHT22;8478;49.208;8.806;2022-12-18T14:22:18;5.40;99.90
2050;DHT22;8478;49.208;8.806;2022-12-18T14:24:45;5.40;99.90
2050;DHT22;8478;49.208;8.806;2022-12-18T14:27:25;5.40;99.90
2050;DHT22;8478;49.208;8.806;2022-12-18T14:29:51;5.40;99.90
2050;DHT22;8478;49.208;8.806;2022-12-18T14:32:20;5.40;99.90
2050;DHT22;8478;49.208;8.806;2022-12-18T14:34:48;5.40;99.90
2050;DHT22;8478;49.208;8.806;2022-12-18T14:37:25;5.40;99.90
2050;DHT22;8478;49.208;8.806;2022-12-18T14:40:02;5.30;99.90
2050;DHT22;8478;49.208;8.806;2022-12-18T14:42:28;5.40;99.90
2050;DHT22;8478;49.208;8.806;2022-12-18T14:48:22;5.40;99.90
2050;DHT22;8478;49.208;8.806;2022-12-18T14:51:02;5.30;99.90
2050;DHT22;8478;49.208;8.806;2022-12-18T14:53:53;5.40;99.90
2050;DHT22;8478;49.208;8.806;2022-12-18T14:56:24;5.40;99.90
2050;DHT22;8478;49.208;8.806;2022-12-18T14:59:02;5.50;99.90
2050;DHT22;8478;49.208;8.806;2022-12-18T15:01:44;5.40;99.90
2050;DHT22;8478;49.208;8.806;2022-12-18T15:05:00;5.50;99.90
2050;DHT22;8478;49.208;8.806;2022-12-18T15:07:41;5.40;99.90
2050;DHT22;8478;49.208;8.806;2022-12-18T15:10:12;5.50;99.90
2050;DHT22;8478;49.208;8.806;2022-12-18T15:12:49;5.50;99.90
2050;DHT22;8478;49.208;8.806;2022-12-18T15:20:54;5.50;99.90
2050;DHT22;8478;49.208;8.806;2022-12-18T15:26:12;5.50;99.90
2050;DHT22;8478;49.208;8.806;2022-12-18T15:28:47;5.60;99.90
2050;DHT22;8478;49.208;8.806;2022-12-18T15:36:22;5.60;99.90
2050;DHT22;8478;49.208;8.806;2022-12-18T15:38:50;5.60;99.90
2050;DHT22;8478;49.208;8.806;2022-12-18T15:41:18;5.50;99.90
2050;DHT22;8478;49.208;8.806;2022-12-18T15:43:46;5.60;99.90
2050;DHT22;8478;49.208;8.806;2022-12-18T15:46:21;5.60;99.90
2050;DHT22;8478;49.208;8.806;2022-12-18T15:48:52;5.50;99.90
2050;DHT22;8478;49.208;8.806;2022-12-18T15:51:33;5.50;99.90
2050;DHT22;8478;49.208;8.806;2022-12-18T15:54:01;5.50;99.90
2050;DHT22;8478;49.208;8.806;2022-12-18T15:56:29;5.50;99.90
2050;DHT22;8478;49.208;8.806;2022-12-18T15:59:16;5.50;99.90
2050;DHT22;8478;49.208;8.806;2022-12-18T16:01:44;5.50;99.90
2050;DHT22;8478;49.208;8.806;2022-12-18T16:04:12;5.50;99.90
2050;DHT22;8478;49.208;8.806;2022-12-18T16:06:39;5.50;99.90
2050;DHT22;8478;49.208;8.806;2022-12-18T16:09:05;5.50;99.90
2050;DHT22;8478;49.208;8.806;2022-12-18T16:11:32;5.50;99.90
2050;DHT22;8478;49.208;8.806;2022-12-18T16:16:45;5.50;99.90
2050;DHT22;8478;49.208;8.806;2022-12-18T16:19:11;5.50;99.90
2050;DHT22;8478;49.208;8.806;2022-12-18T16:21:37;5.50;99.90
2050;DHT22;8478;49.208;8.806;2022-12-18T16:24:03;5.50;99.90
2050;DHT22;8478;49.208;8.806;2022-12-18T16:26:29;5.50;99.90
2050;DHT22;8478;49.208;8.806;2022-12-18T16:28:55;5.60;99.90
2050;DHT22;8478;49.208;8.806;2022-12-18T16:31:21;5.50;99.90
2050;DHT22;8478;49.208;8.806;2022-12-18T16:33:46;5.50;99.90
2050;DHT22;8478;49.208;8.806;2022-12-18T16:36:12;5.50;99.90
2050;DHT22;8478;49.208;8.806;2022-12-18T16:38:38;5.50;99.90
2050;DHT22;8478;49.208;8.806;2022-12-18T16:41:17;5.50;99.90
2050;DHT22;8478;49.208;8.806;2022-12-18T16:43:59;5.50;99.90
2050;DHT22;8478;49.208;8.806;2022-12-18T16:46:25;5.50;99.90
2050;DHT22;8478;49.208;8.806;2022-12-18T16:48:52;5.50;99.90
2050;DHT22;8478;49.208;8.806;2022-12-18T16:51:18;5.50;99.90
2050;DHT22;8478;49.208;8.806;2022-12-18T16:53:43;5.60;99.90
2050;DHT22;8478;49.208;8.806;2022-12-18T16:56:09;5.50;99.90
2050;DHT22;8478;49.208;8.806;2022-12-18T16:58:35;5.50;99.90
2050;DHT22;8478;49.208;8.806;2022-12-18T17:01:03;5.50;99.90
2050;DHT22;8478;49.208;8.806;2022-12-18T17:03:31;5.50;99.90
2050;DHT22;8478;49.208;8.806;2022-12-18T17:06:04;5.60;99.90
2050;DHT22;8478;49.208;8.806;2022-12-18T17:08:30;5.60;99.90
2050;DHT22;8478;49.208;8.806;2022-12-18T17:11:03;5.50;99.90
2050;DHT22;8478;49.208;8.806;2022-12-18T17:13:29;5.50;99.90
2050;DHT22;8478;49.208;8.806;2022-12-18T17:15:54;5.50;99.90
2050;DHT22;8478;49.208;8.806;2022-12-18T17:18:22;5.60;99.90
2050;DHT22;8478;49.208;8.806;2022-12-18T17:20:47;5.60;99.90
2050;DHT22;8478;49.208;8.806;2022-12-18T17:23:13;5.60;99.90
2050;DHT22;8478;49.208;8.806;2022-12-18T17:25:39;5.60;99.90
2050;DHT22;8478;49.208;8.806;2022-12-18T17:28:05;5.60;99.90
2050;DHT22;8478;49.208;8.806;2022-12-18T17:30:31;5.60;99.90
2050;DHT22;8478;49.208;8.806;2022-12-18T17:32:56;5.60;99.90
2050;DHT22;8478;49.208;8.806;2022-12-18T17:35:22;5.60;99.90
2050;DHT22;8478;49.208;8.806;2022-12-18T17:37:48;5.60;99.90
2050;DHT22;8478;49.208;8.806;2022-12-18T17:40:13;5.50;99.90
2050;DHT22;8478;49.208;8.806;2022-12-18T17:42:39;5.60;99.90
2050;DHT22;8478;49.208;8.806;2022-12-18T17:45:05;5.50;99.90
2050;DHT22;8478;49.208;8.806;2022-12-18T17:47:32;5.60;99.90
2050;DHT22;8478;49.208;8.806;2022-12-18T17:49:57;5.50;99.90
2050;DHT22;8478;49.208;8.806;2022-12-18T17:52:23;5.60;99.90
2050;DHT22;8478;49.208;8.806;2022-12-18T17:54:49;5.60;99.90
2050;DHT22;8478;49.208;8.806;2022-12-18T17:57:15;5.60;99.90
2050;DHT22;8478;49.208;8.806;2022-12-18T17:59:40;5.60;99.90
2050;DHT22;8478;49.208;8.806;2022-12-18T18:02:08;5.60;99.90
2050;DHT22;8478;49.208;8.806;2022-12-18T18:04:34;5.60;99.90
2050;DHT22;8478;49.208;8.806;2022-12-18T18:06:59;5.60;99.90
2050;DHT22;8478;49.208;8.806;2022-12-18T18:09:25;5.60;99.90